createdAt,value
2023-02-02T00:00:10.283Z,99881.23
2023-02-02T00:00:32.140Z,99880.83
2023-02-02T00:00:54.029Z,99880.74
2023-02-02T00:01:15.812Z,99878.91
2023-02-02T00:01:37.525Z,99881.77
2023-02-02T00:01:59.484Z,99879.42
2023-02-02T00:02:21.764Z,99878.33
2023-02-02T00:02:43.408Z,99879.29
2023-02-02T00:03:05.198Z,99880.80
2023-02-02T00:03:26.963Z,99878.64
2023-02-02T00:03:50.279Z,99879.48
2023-02-02T00:04:19.429Z,99877.43
2023-02-02T00:04:41.077Z,99878.10
2023-02-02T00:05:02.763Z,99876.94
2023-02-02T00:05:24.825Z,99874.36
2023-02-02T00:05:47.295Z,99875.77
2023-02-02T00:06:09.551Z,99876.54
2023-02-02T00:06:31.535Z,99872.40
2023-02-02T00:06:53.380Z,99872.47
2023-02-02T00:07:15.244Z,99872.52
2023-02-02T00:07:36.990Z,99872.70
2023-02-02T00:07:58.674Z,99869.80
2023-02-02T00:08:20.708Z,99870.85
2023-02-02T00:08:42.381Z,99870.20
2023-02-02T00:09:04.128Z,99869.22
2023-02-02T00:09:28.368Z,99865.94
2023-02-02T00:09:49.904Z,99867.02
2023-02-02T00:10:11.631Z,99870.17
2023-02-02T00:10:33.722Z,99869.33
2023-02-02T00:10:55.325Z,99864.50
2023-02-02T00:11:17.213Z,99866.76
2023-02-02T00:11:38.845Z,99863.27
2023-02-02T00:12:00.963Z,99865.19
2023-02-02T00:12:22.643Z,99864.11
2023-02-02T00:12:44.277Z,99864.74
2023-02-02T00:13:05.951Z,99863.80
2023-02-02T00:13:27.897Z,99863.58
2023-02-02T00:13:50.368Z,99862.27
2023-02-02T00:14:11.932Z,99859.91
2023-02-02T00:14:33.858Z,99861.55
2023-02-02T00:14:55.573Z,99860.27
2023-02-02T00:15:17.226Z,99857.02
2023-02-02T00:15:39.218Z,99860.59
2023-02-02T00:16:20.060Z,99859.48
2023-02-02T00:16:42.735Z,99859.21
2023-02-02T00:17:04.408Z,99857.95
2023-02-02T00:17:26.297Z,99856.05
2023-02-02T00:17:48.393Z,99857.29
2023-02-02T00:18:10.172Z,99855.98
2023-02-02T00:18:31.684Z,99853.25
2023-02-02T00:18:54.165Z,99857.61
2023-02-02T00:19:16.762Z,99854.36
2023-02-02T00:19:38.476Z,99858.94
2023-02-02T00:20:00.045Z,99855.90
2023-02-02T00:20:23.539Z,99858.91
2023-02-02T00:20:48.797Z,99857.72
2023-02-02T00:21:10.792Z,99856.77
2023-02-02T00:21:32.987Z,99855.42
2023-02-02T00:21:54.529Z,99853.41
2023-02-02T00:22:16.486Z,99857.48
2023-02-02T00:22:38.131Z,99856.64
2023-02-02T00:22:59.711Z,99854.80
2023-02-02T00:23:21.947Z,99856.45
2023-02-02T00:23:44.207Z,99856.98
2023-02-02T00:24:10.181Z,99855.31
2023-02-02T00:24:32.209Z,99856.40
2023-02-02T00:24:53.990Z,99858.89
2023-02-02T00:25:15.634Z,99854.73
2023-02-02T00:25:37.416Z,99854.03
2023-02-02T00:25:59.307Z,99855.02
2023-02-02T00:26:21.143Z,99853.58
2023-02-02T00:26:43.173Z,99852.50
2023-02-02T00:27:05.172Z,99852.73
2023-02-02T00:27:26.783Z,99851.11
2023-02-02T00:27:48.738Z,99853.46
2023-02-02T00:28:11.443Z,99851.66
2023-02-02T00:28:33.102Z,99853.14
2023-02-02T00:28:54.863Z,99848.18
2023-02-02T00:29:20.379Z,99851.40
2023-02-02T00:29:42.370Z,99852.93
2023-02-02T00:30:05.479Z,99852.20
2023-02-02T00:30:27.217Z,99843.16
2023-02-02T00:30:48.973Z,99845.30
2023-02-02T00:31:10.750Z,99844.63
2023-02-02T00:31:32.922Z,99843.65
2023-02-02T00:31:55.119Z,99842.65
2023-02-02T00:32:16.698Z,99845.82
2023-02-02T00:32:40.154Z,99842.55
2023-02-02T00:33:02.107Z,99843.30
2023-02-02T00:33:23.995Z,99843.36
2023-02-02T00:33:46.393Z,99839.93
2023-02-02T00:34:09.609Z,99844.00
2023-02-02T00:34:31.600Z,99844.77
2023-02-02T00:34:53.687Z,99844.45
2023-02-02T00:35:15.381Z,99843.80
2023-02-02T00:35:39.409Z,99844.51
2023-02-02T00:36:01.088Z,99845.99
2023-02-02T00:36:22.885Z,99841.40
2023-02-02T00:36:44.661Z,99840.55
2023-02-02T00:37:06.477Z,99844.28
2023-02-02T00:37:28.948Z,99846.20
2023-02-02T00:37:50.640Z,99846.08
2023-02-02T00:38:12.205Z,99842.45
2023-02-02T00:38:34.161Z,99844.89
2023-02-02T00:38:56.179Z,99843.31
2023-02-02T00:39:19.398Z,99844.88
2023-02-02T00:39:41.431Z,99845.48
2023-02-02T00:40:03.379Z,99845.08
2023-02-02T00:40:25.509Z,99847.07
2023-02-02T00:40:47.085Z,99844.95
2023-02-02T00:41:08.735Z,99846.40
2023-02-02T00:41:30.420Z,99845.27
2023-02-02T00:41:52.096Z,99846.42
2023-02-02T00:42:14.491Z,99846.69
2023-02-02T00:42:36.993Z,99845.91
2023-02-02T00:42:58.779Z,99846.74
2023-02-02T00:43:20.356Z,99848.10
2023-02-02T00:43:42.146Z,99848.96
2023-02-02T00:44:22.439Z,99847.41
2023-02-02T00:45:03.248Z,99845.85
2023-02-02T00:45:26.664Z,99846.46
2023-02-02T00:45:49.037Z,99846.17
2023-02-02T00:46:14.224Z,99844.70
2023-02-02T00:46:38.181Z,99846.65
2023-02-02T00:46:59.850Z,99845.16
2023-02-02T00:47:22.036Z,99841.34
2023-02-02T00:47:47.291Z,99841.89
2023-02-02T00:48:10.410Z,99843.99
2023-02-02T00:48:32.091Z,99843.77
2023-02-02T00:48:53.776Z,99840.10
2023-02-02T00:49:15.457Z,99843.11
2023-02-02T00:49:38.465Z,99841.06
2023-02-02T00:50:01.173Z,99841.09
2023-02-02T00:50:23.262Z,99838.69
2023-02-02T00:50:45.048Z,99839.77
2023-02-02T00:51:06.935Z,99839.27
2023-02-02T00:51:28.717Z,99840.20
2023-02-02T00:51:51.423Z,99838.77
2023-02-02T00:52:13.005Z,99837.53
2023-02-02T00:52:34.790Z,99836.98
2023-02-02T00:52:58.336Z,99834.47
2023-02-02T00:53:20.109Z,99837.53
2023-02-02T00:53:42.388Z,99832.25
2023-02-02T00:54:04.280Z,99835.60
2023-02-02T00:54:26.272Z,99832.95
2023-02-02T00:54:47.851Z,99832.98
2023-02-02T00:55:09.490Z,99829.96
2023-02-02T00:55:31.930Z,99830.74
2023-02-02T00:55:53.510Z,99824.27
2023-02-02T00:56:15.196Z,99830.15
2023-02-02T00:56:36.809Z,99825.58
2023-02-02T00:56:58.757Z,99828.35
2023-02-02T00:57:20.760Z,99828.35
2023-02-02T00:57:43.698Z,99827.44
2023-02-02T00:58:05.469Z,99825.38
2023-02-02T00:58:27.224Z,99827.19
2023-02-02T00:58:48.908Z,99824.81
2023-02-02T00:59:10.690Z,99825.68
2023-02-02T00:59:32.686Z,99825.04
2023-02-02T00:59:55.181Z,99825.23
2023-02-02T01:00:18.229Z,99829.10
2023-02-02T01:00:42.387Z,99825.85
2023-02-02T01:01:04.350Z,99822.80
2023-02-02T01:01:26.452Z,99822.84
2023-02-02T01:01:48.243Z,99820.80
2023-02-02T01:02:10.504Z,99823.96
2023-02-02T01:02:34.137Z,99820.17
2023-02-02T01:02:56.445Z,99820.08
2023-02-02T01:03:18.402Z,99823.77
2023-02-02T01:03:40.187Z,99827.27
2023-02-02T01:04:02.073Z,99820.39
2023-02-02T01:04:23.757Z,99821.52
2023-02-02T01:04:46.360Z,99823.75
2023-02-02T01:05:12.548Z,99822.02
2023-02-02T01:05:37.498Z,99822.68
2023-02-02T01:05:59.181Z,99825.24
2023-02-02T01:06:21.065Z,99822.90
2023-02-02T01:06:43.059Z,99821.60
2023-02-02T01:07:05.246Z,99824.16
2023-02-02T01:07:26.976Z,99819.38
2023-02-02T01:07:48.830Z,99822.73
2023-02-02T01:08:10.624Z,99821.47
2023-02-02T01:08:32.452Z,99821.38
2023-02-02T01:08:54.167Z,99815.73
2023-02-02T01:09:15.996Z,99818.99
2023-02-02T01:09:37.942Z,99819.46
2023-02-02T01:09:59.724Z,99820.84
2023-02-02T01:10:23.249Z,99819.26
2023-02-02T01:10:45.240Z,99817.34
2023-02-02T01:11:07.226Z,99818.58
2023-02-02T01:11:30.343Z,99814.83
2023-02-02T01:11:51.959Z,99817.47
2023-02-02T01:12:13.604Z,99819.23
2023-02-02T01:12:35.494Z,99819.13
2023-02-02T01:12:57.483Z,99818.11
2023-02-02T01:13:19.298Z,99817.28
2023-02-02T01:13:41.358Z,99816.45
2023-02-02T01:14:03.142Z,99816.16
2023-02-02T01:14:25.081Z,99817.95
2023-02-02T01:14:46.913Z,99819.73
2023-02-02T01:15:09.928Z,99815.64
2023-02-02T01:15:31.708Z,99814.62
2023-02-02T01:15:56.408Z,99816.20
2023-02-02T01:16:18.165Z,99815.71
2023-02-02T01:16:40.789Z,99813.52
2023-02-02T01:17:02.844Z,99812.83
2023-02-02T01:17:24.725Z,99814.42
2023-02-02T01:17:46.507Z,99816.73
2023-02-02T01:18:08.321Z,99819.48
2023-02-02T01:18:30.287Z,99817.20
2023-02-02T01:18:52.397Z,99817.11
2023-02-02T01:19:14.758Z,99815.83
2023-02-02T01:19:36.552Z,99814.39
2023-02-02T01:19:58.249Z,99816.05
2023-02-02T01:20:19.945Z,99816.28
2023-02-02T01:20:41.705Z,99817.44
2023-02-02T01:21:04.917Z,99817.20
2023-02-02T01:21:26.993Z,99817.13
2023-02-02T01:21:48.691Z,99814.27
2023-02-02T01:22:10.784Z,99818.55
2023-02-02T01:22:34.250Z,99817.13
2023-02-02T01:22:55.816Z,99821.27
2023-02-02T01:23:17.676Z,99819.30
2023-02-02T01:23:39.864Z,99819.30
2023-02-02T01:24:01.445Z,99816.06
2023-02-02T01:24:23.226Z,99818.71
2023-02-02T01:24:45.097Z,99817.02
2023-02-02T01:25:07.002Z,99818.80
2023-02-02T01:25:30.016Z,99820.23
2023-02-02T01:25:53.437Z,99817.15
2023-02-02T01:26:15.325Z,99816.85
2023-02-02T01:26:37.252Z,99815.66
2023-02-02T01:26:58.893Z,99815.02
2023-02-02T01:27:20.742Z,99817.19
2023-02-02T01:27:43.370Z,99815.80
2023-02-02T01:28:05.473Z,99815.52
2023-02-02T01:28:27.460Z,99814.67
2023-02-02T01:28:49.363Z,99815.64
2023-02-02T01:29:11.645Z,99815.48
2023-02-02T01:29:33.536Z,99816.06
2023-02-02T01:29:55.199Z,99817.30
2023-02-02T01:30:16.792Z,99813.53
2023-02-02T01:30:39.256Z,99814.98
2023-02-02T01:31:05.161Z,99815.14
2023-02-02T01:31:27.071Z,99813.05
2023-02-02T01:31:48.998Z,99817.18
2023-02-02T01:32:10.730Z,99815.05
2023-02-02T01:32:32.645Z,99813.75
2023-02-02T01:32:54.397Z,99816.95
2023-02-02T01:33:16.590Z,99820.90
2023-02-02T01:33:38.373Z,99819.59
2023-02-02T01:34:00.075Z,99818.85
2023-02-02T01:34:21.822Z,99821.00
2023-02-02T01:34:44.444Z,99819.89
2023-02-02T01:35:06.431Z,99820.88
2023-02-02T01:35:28.216Z,99823.89
2023-02-02T01:35:51.298Z,99820.98
2023-02-02T01:36:14.037Z,99823.49
2023-02-02T01:36:36.230Z,99822.90
2023-02-02T01:36:58.628Z,99823.25
2023-02-02T01:37:21.639Z,99818.55
2023-02-02T01:37:43.533Z,99826.77
2023-02-02T01:38:05.208Z,99825.11
2023-02-02T01:38:27.097Z,99821.85
2023-02-02T01:38:48.802Z,99825.05
2023-02-02T01:39:10.362Z,99827.02
2023-02-02T01:39:34.108Z,99827.93
2023-02-02T01:39:56.364Z,99825.90
2023-02-02T01:40:18.165Z,99828.02
2023-02-02T01:40:46.701Z,99831.22
2023-02-02T01:41:11.245Z,99832.99
2023-02-02T01:41:33.118Z,99831.52
2023-02-02T01:41:54.917Z,99833.95
2023-02-02T01:42:19.875Z,99834.20
2023-02-02T01:42:42.276Z,99835.98
2023-02-02T01:43:06.108Z,99833.05
2023-02-02T01:43:28.967Z,99834.74
2023-02-02T01:43:58.056Z,99835.91
2023-02-02T01:44:39.205Z,99839.27
2023-02-02T01:45:03.105Z,99837.71
2023-02-02T01:45:27.401Z,99835.54
2023-02-02T01:45:49.808Z,99830.90
2023-02-02T01:46:15.157Z,99834.52
2023-02-02T01:46:37.301Z,99836.55
2023-02-02T01:46:59.082Z,99834.61
2023-02-02T01:47:21.893Z,99833.70
2023-02-02T01:47:53.798Z,99835.98
2023-02-02T01:48:15.380Z,99837.60
2023-02-02T01:48:36.959Z,99834.33
2023-02-02T01:49:07.744Z,99836.10
2023-02-02T01:49:29.352Z,99838.39
2023-02-02T01:49:51.005Z,99837.81
2023-02-02T01:50:13.236Z,99836.13
2023-02-02T01:50:35.088Z,99838.61
2023-02-02T01:50:57.688Z,99839.41
2023-02-02T01:51:20.475Z,99841.89
2023-02-02T01:51:48.844Z,99840.41
2023-02-02T01:52:11.215Z,99843.23
2023-02-02T01:52:33.317Z,99842.11
2023-02-02T01:52:55.533Z,99842.70
2023-02-02T01:53:19.165Z,99844.84
2023-02-02T01:53:40.920Z,99845.73
2023-02-02T01:54:02.905Z,99844.56
2023-02-02T01:54:27.963Z,99845.49
2023-02-02T01:54:50.771Z,99846.73
2023-02-02T01:55:13.517Z,99843.29
2023-02-02T01:55:35.578Z,99845.20
2023-02-02T01:55:57.353Z,99849.30
2023-02-02T01:56:21.725Z,99846.84
2023-02-02T01:56:46.442Z,99847.25
2023-02-02T01:57:11.426Z,99849.04
2023-02-02T01:57:33.004Z,99847.51
2023-02-02T01:57:56.611Z,99848.99
2023-02-02T01:58:29.949Z,99851.99
2023-02-02T01:58:51.629Z,99850.44
2023-02-02T01:59:16.584Z,99850.88
2023-02-02T01:59:41.028Z,99851.50
2023-02-02T02:00:04.450Z,99854.92
2023-02-02T02:00:36.378Z,99854.31
2023-02-02T02:00:58.383Z,99851.04
2023-02-02T02:01:20.158Z,99855.55
2023-02-02T02:01:42.329Z,99853.48
2023-02-02T02:02:04.114Z,99854.26
2023-02-02T02:02:26.658Z,99854.46
2023-02-02T02:02:48.800Z,99857.60
2023-02-02T02:03:12.426Z,99856.41
2023-02-02T02:03:34.968Z,99853.85
2023-02-02T02:03:57.029Z,99854.23
2023-02-02T02:04:18.829Z,99852.20
2023-02-02T02:04:41.815Z,99855.31
2023-02-02T02:05:05.644Z,99854.33
2023-02-02T02:05:32.453Z,99852.83
2023-02-02T02:05:55.497Z,99854.96
2023-02-02T02:06:18.194Z,99856.60
2023-02-02T02:06:40.357Z,99853.02
2023-02-02T02:07:02.218Z,99855.30
2023-02-02T02:07:26.275Z,99853.55
2023-02-02T02:07:48.527Z,99852.33
2023-02-02T02:08:14.965Z,99848.46
2023-02-02T02:08:47.174Z,99850.14
2023-02-02T02:09:09.059Z,99850.04
2023-02-02T02:09:31.050Z,99848.39
2023-02-02T02:09:53.957Z,99845.02
2023-02-02T02:10:16.766Z,99843.88
2023-02-02T02:10:38.791Z,99844.66
2023-02-02T02:11:01.584Z,99845.10
2023-02-02T02:11:23.682Z,99847.86
2023-02-02T02:11:45.895Z,99844.15
2023-02-02T02:12:12.849Z,99846.42
2023-02-02T02:12:35.654Z,99844.48
2023-02-02T02:12:58.801Z,99845.41
2023-02-02T02:13:21.267Z,99842.16
2023-02-02T02:14:01.450Z,99842.74
2023-02-02T02:14:41.861Z,99844.53
2023-02-02T02:15:22.574Z,99842.54
2023-02-02T02:16:20.417Z,99844.73
2023-02-02T02:16:54.599Z,99843.77
2023-02-02T02:17:26.217Z,99844.54
2023-02-02T02:17:47.772Z,99846.50
2023-02-02T02:18:15.031Z,99843.96
2023-02-02T02:18:45.272Z,99840.19
2023-02-02T02:19:06.953Z,99840.75
2023-02-02T02:20:06.785Z,99839.59
2023-02-02T02:20:50.570Z,99840.80
2023-02-02T02:21:34.434Z,99836.35
2023-02-02T02:22:26.799Z,99840.54
2023-02-02T02:23:22.948Z,99838.74
2023-02-02T02:24:06.761Z,99834.21
2023-02-02T02:25:20.387Z,99837.11
2023-02-02T02:26:14.860Z,99835.05
2023-02-02T02:26:42.381Z,99833.49
2023-02-02T02:27:23.395Z,99831.14
2023-02-02T02:28:00.954Z,99836.07
2023-02-02T02:28:41.023Z,99832.73
2023-02-02T02:29:02.604Z,99834.20
2023-02-02T02:29:43.373Z,99835.10
2023-02-02T02:30:42.094Z,99834.69
2023-02-02T02:31:10.131Z,99834.12
2023-02-02T02:31:34.781Z,99836.77
2023-02-02T02:32:19.263Z,99838.06
2023-02-02T02:32:50.528Z,99837.04
2023-02-02T02:33:18.857Z,99838.08
2023-02-02T02:33:55.787Z,99839.23
2023-02-02T02:34:18.860Z,99842.22
2023-02-02T02:34:52.384Z,99842.47
2023-02-02T02:35:23.585Z,99840.02
2023-02-02T02:36:09.100Z,99840.92
2023-02-02T02:36:32.247Z,99841.63
2023-02-02T02:37:00.566Z,99843.82
2023-02-02T02:37:22.433Z,99846.07
2023-02-02T02:37:46.860Z,99845.60
2023-02-02T02:38:08.981Z,99842.84
2023-02-02T02:39:00.086Z,99844.50
2023-02-02T02:39:26.297Z,99846.81
2023-02-02T02:40:06.161Z,99844.72
2023-02-02T02:40:33.498Z,99849.91
2023-02-02T02:40:56.682Z,99854.00
2023-02-02T02:42:23.315Z,99853.98
2023-02-02T02:42:47.241Z,99853.39
2023-02-02T02:43:15.884Z,99851.02
2023-02-02T02:43:42.266Z,99852.45
2023-02-02T02:44:07.016Z,99852.38
2023-02-02T02:44:30.231Z,99855.78
2023-02-02T02:44:54.006Z,99855.23
2023-02-02T02:45:17.586Z,99857.38
2023-02-02T02:45:40.601Z,99857.20
2023-02-02T02:46:03.954Z,99858.52
2023-02-02T02:46:27.657Z,99854.54
2023-02-02T02:46:50.755Z,99857.23
2023-02-02T02:47:13.976Z,99859.89
2023-02-02T02:47:38.725Z,99861.77
2023-02-02T02:48:02.771Z,99858.27
2023-02-02T02:48:26.898Z,99862.27
2023-02-02T02:48:56.964Z,99857.39
2023-02-02T02:49:19.976Z,99863.86
2023-02-02T02:49:43.922Z,99861.66
2023-02-02T02:50:07.235Z,99862.56
2023-02-02T02:50:31.586Z,99865.02
2023-02-02T02:50:54.785Z,99863.31
2023-02-02T02:51:36.822Z,99864.92
2023-02-02T02:52:00.343Z,99863.82
2023-02-02T02:52:30.412Z,99866.45
2023-02-02T02:52:57.223Z,99865.32
2023-02-02T02:53:23.400Z,99866.05
2023-02-02T02:53:46.710Z,99869.53
2023-02-02T02:54:11.769Z,99869.45
2023-02-02T02:54:54.004Z,99866.89
2023-02-02T02:55:17.041Z,99869.75
2023-02-02T02:55:47.095Z,99868.77
2023-02-02T02:56:19.303Z,99870.89
2023-02-02T02:56:54.494Z,99868.94
2023-02-02T02:57:29.768Z,99867.64
2023-02-02T02:58:07.608Z,99867.66
2023-02-02T02:58:39.928Z,99870.48
2023-02-02T02:59:06.113Z,99866.34
2023-02-02T02:59:48.664Z,99870.73
2023-02-02T03:00:30.486Z,99871.81
2023-02-02T03:01:02.497Z,99868.02
2023-02-02T03:01:38.372Z,99869.36
2023-02-02T03:02:17.081Z,99872.34
2023-02-02T03:02:43.245Z,99872.20
2023-02-02T03:03:15.761Z,99867.45
2023-02-02T03:03:45.931Z,99870.59
2023-02-02T03:04:18.772Z,99870.32
2023-02-02T03:04:46.380Z,99867.25
2023-02-02T03:05:28.296Z,99866.79
2023-02-02T03:05:53.267Z,99870.73
2023-02-02T03:06:16.583Z,99869.59
2023-02-02T03:06:43.319Z,99872.41
2023-02-02T03:07:08.232Z,99871.02
2023-02-02T03:07:35.542Z,99869.99
2023-02-02T03:08:06.427Z,99870.58
2023-02-02T03:08:31.688Z,99867.52
2023-02-02T03:09:11.165Z,99869.87
2023-02-02T03:09:35.308Z,99870.41
2023-02-02T03:09:58.523Z,99867.83
2023-02-02T03:10:22.067Z,99872.67
2023-02-02T03:10:45.974Z,99873.00
2023-02-02T03:11:10.419Z,99870.89
2023-02-02T03:11:34.861Z,99873.23
2023-02-02T03:11:58.033Z,99873.81
2023-02-02T03:12:21.193Z,99874.56
2023-02-02T03:12:45.127Z,99874.45
2023-02-02T03:13:11.535Z,99874.51
2023-02-02T03:13:34.517Z,99875.13
2023-02-02T03:13:57.638Z,99874.36
2023-02-02T03:14:20.756Z,99879.84
2023-02-02T03:14:44.074Z,99880.81
2023-02-02T03:15:07.494Z,99878.19
2023-02-02T03:15:31.056Z,99880.07
2023-02-02T03:15:54.711Z,99880.61
2023-02-02T03:16:17.960Z,99879.71
2023-02-02T03:16:40.960Z,99878.73
2023-02-02T03:17:04.304Z,99879.27
2023-02-02T03:17:27.911Z,99878.27
2023-02-02T03:17:51.131Z,99879.17
2023-02-02T03:18:14.932Z,99880.44
2023-02-02T03:18:38.386Z,99881.86
2023-02-02T03:19:02.109Z,99883.29
2023-02-02T03:19:27.676Z,99876.91
2023-02-02T03:19:51.413Z,99879.23
2023-02-02T03:20:14.829Z,99881.71
2023-02-02T03:20:37.838Z,99881.39
2023-02-02T03:21:01.054Z,99880.04
2023-02-02T03:21:24.176Z,99882.86
2023-02-02T03:21:47.186Z,99881.38
2023-02-02T03:22:10.192Z,99884.58
2023-02-02T03:22:33.304Z,99878.49
2023-02-02T03:22:56.422Z,99882.17
2023-02-02T03:23:19.741Z,99880.67
2023-02-02T03:23:42.750Z,99881.73
2023-02-02T03:24:06.170Z,99882.75
2023-02-02T03:24:30.621Z,99883.05
2023-02-02T03:24:53.939Z,99882.63
2023-02-02T03:25:16.898Z,99885.30
2023-02-02T03:25:40.569Z,99883.61
2023-02-02T03:26:03.791Z,99881.09
2023-02-02T03:26:27.352Z,99881.50
2023-02-02T03:26:50.665Z,99885.91
2023-02-02T03:27:13.948Z,99885.12
2023-02-02T03:27:39.831Z,99883.98
2023-02-02T03:28:03.145Z,99886.14
2023-02-02T03:28:26.462Z,99886.77
2023-02-02T03:28:49.981Z,99887.29
2023-02-02T03:29:13.403Z,99887.08
2023-02-02T03:29:36.835Z,99890.39
2023-02-02T03:30:00.752Z,99889.36
2023-02-02T03:30:24.306Z,99889.20
2023-02-02T03:30:47.570Z,99892.91
2023-02-02T03:31:10.879Z,99892.61
2023-02-02T03:31:34.277Z,99893.36
2023-02-02T03:31:57.350Z,99890.27
2023-02-02T03:32:20.361Z,99890.48
2023-02-02T03:32:44.100Z,99890.15
2023-02-02T03:33:07.201Z,99892.95
2023-02-02T03:33:30.422Z,99891.97
2023-02-02T03:33:54.774Z,99892.70
2023-02-02T03:34:17.876Z,99892.58
2023-02-02T03:34:40.992Z,99894.36
2023-02-02T03:35:04.208Z,99893.36
2023-02-02T03:35:27.422Z,99896.02
2023-02-02T03:35:50.638Z,99898.51
2023-02-02T03:36:16.829Z,99895.91
2023-02-02T03:36:39.843Z,99895.27
2023-02-02T03:37:05.917Z,99896.48
2023-02-02T03:37:29.129Z,99899.48
2023-02-02T03:37:52.343Z,99894.59
2023-02-02T03:38:15.878Z,99896.48
2023-02-02T03:38:39.122Z,99897.14
2023-02-02T03:39:02.915Z,99897.36
2023-02-02T03:39:27.255Z,99897.13
2023-02-02T03:39:50.166Z,99894.95
2023-02-02T03:40:13.488Z,99896.80
2023-02-02T03:40:36.600Z,99897.23
2023-02-02T03:40:59.746Z,99898.30
2023-02-02T03:41:22.933Z,99899.98
2023-02-02T03:41:46.757Z,99898.19
2023-02-02T03:42:09.783Z,99897.61
2023-02-02T03:42:32.781Z,99896.52
2023-02-02T03:42:56.610Z,99895.48
2023-02-02T03:43:20.544Z,99891.84
2023-02-02T03:43:43.628Z,99891.67
2023-02-02T03:44:06.983Z,99895.04
2023-02-02T03:44:30.403Z,99892.63
2023-02-02T03:44:53.512Z,99892.85
2023-02-02T03:45:16.569Z,99892.69
2023-02-02T03:45:40.896Z,99892.55
2023-02-02T03:46:04.726Z,99894.45
2023-02-02T03:46:28.088Z,99893.70
2023-02-02T03:46:53.383Z,99894.26
2023-02-02T03:47:16.387Z,99895.33
2023-02-02T03:47:39.510Z,99893.14
2023-02-02T03:48:05.994Z,99898.17
2023-02-02T03:48:29.105Z,99898.77
2023-02-02T03:48:52.322Z,99893.58
2023-02-02T03:49:15.333Z,99892.76
2023-02-02T03:49:38.457Z,99897.85
2023-02-02T03:50:01.586Z,99897.36
2023-02-02T03:50:25.621Z,99899.66
2023-02-02T03:50:48.814Z,99898.74
2023-02-02T03:51:12.963Z,99899.04
2023-02-02T03:51:36.675Z,99896.52
2023-02-02T03:51:59.690Z,99902.64
2023-02-02T03:52:23.213Z,99901.86
2023-02-02T03:52:46.941Z,99900.54
2023-02-02T03:53:09.874Z,99898.71
2023-02-02T03:53:33.075Z,99900.68
2023-02-02T03:53:56.179Z,99903.55
2023-02-02T03:54:19.397Z,99905.75
2023-02-02T03:54:42.716Z,99903.25
2023-02-02T03:55:06.156Z,99901.52
2023-02-02T03:55:29.252Z,99903.61
2023-02-02T03:55:52.327Z,99900.34
2023-02-02T03:56:15.782Z,99901.27
2023-02-02T03:56:38.797Z,99902.31
2023-02-02T03:57:01.915Z,99896.27
2023-02-02T03:57:25.125Z,99900.49
2023-02-02T03:57:48.367Z,99897.96
2023-02-02T03:58:11.865Z,99898.85
2023-02-02T03:58:35.082Z,99901.30
2023-02-02T03:58:58.219Z,99898.05
2023-02-02T03:59:21.440Z,99898.61
2023-02-02T03:59:45.038Z,99902.98
2023-02-02T04:00:08.668Z,99900.27
2023-02-02T04:00:34.963Z,99902.01
2023-02-02T04:01:07.780Z,99899.86
2023-02-02T04:01:31.015Z,99898.84
2023-02-02T04:01:54.245Z,99897.84
2023-02-02T04:02:17.427Z,99898.23
2023-02-02T04:02:40.997Z,99900.53
2023-02-02T04:03:04.408Z,99902.59
2023-02-02T04:03:27.997Z,99899.98
2023-02-02T04:03:51.131Z,99898.70
2023-02-02T04:04:14.223Z,99901.27
2023-02-02T04:04:37.340Z,99899.80
2023-02-02T04:05:00.963Z,99899.52
2023-02-02T04:05:24.591Z,99902.75
2023-02-02T04:05:50.975Z,99900.04
2023-02-02T04:06:13.988Z,99900.45
2023-02-02T04:06:39.761Z,99901.29
2023-02-02T04:07:02.853Z,99901.70
2023-02-02T04:07:26.194Z,99900.59
2023-02-02T04:07:49.636Z,99905.79
2023-02-02T04:08:12.832Z,99904.03
2023-02-02T04:08:36.459Z,99903.84
2023-02-02T04:08:59.774Z,99904.23
2023-02-02T04:09:22.893Z,99906.20
2023-02-02T04:09:45.807Z,99906.39
2023-02-02T04:10:09.627Z,99905.91
2023-02-02T04:10:32.745Z,99910.30
2023-02-02T04:10:55.958Z,99908.98
2023-02-02T04:11:19.088Z,99910.94
2023-02-02T04:11:42.089Z,99911.31
2023-02-02T04:12:08.167Z,99911.54
2023-02-02T04:12:31.607Z,99912.44
2023-02-02T04:12:54.683Z,99912.33
2023-02-02T04:13:18.020Z,99909.57
2023-02-02T04:13:43.424Z,99908.91
2023-02-02T04:14:07.332Z,99912.95
2023-02-02T04:14:30.698Z,99911.21
2023-02-02T04:14:53.923Z,99913.55
2023-02-02T04:15:17.380Z,99912.36
2023-02-02T04:15:40.798Z,99912.66
2023-02-02T04:16:04.035Z,99914.93
2023-02-02T04:16:27.538Z,99911.95
2023-02-02T04:16:51.365Z,99912.92
2023-02-02T04:17:14.374Z,99916.81
2023-02-02T04:17:37.603Z,99916.56
2023-02-02T04:18:01.013Z,99913.48
2023-02-02T04:18:24.232Z,99916.30
2023-02-02T04:18:47.443Z,99918.66
2023-02-02T04:19:13.019Z,99921.85
2023-02-02T04:19:36.233Z,99919.34
2023-02-02T04:19:59.442Z,99920.11
2023-02-02T04:20:22.559Z,99925.08
2023-02-02T04:20:45.673Z,99924.21
2023-02-02T04:21:09.000Z,99925.73
2023-02-02T04:21:32.141Z,99925.91
2023-02-02T04:21:56.345Z,99924.23
2023-02-02T04:22:19.455Z,99927.36
2023-02-02T04:22:42.592Z,99925.48
2023-02-02T04:23:05.920Z,99927.65
2023-02-02T04:23:29.526Z,99929.05
2023-02-02T04:23:52.541Z,99928.25
2023-02-02T04:24:15.651Z,99926.73
2023-02-02T04:24:38.701Z,99929.39
2023-02-02T04:25:01.654Z,99927.16
2023-02-02T04:25:25.122Z,99927.36
2023-02-02T04:25:51.595Z,99927.77
2023-02-02T04:26:14.690Z,99926.03
2023-02-02T04:26:38.263Z,99926.95
2023-02-02T04:27:01.329Z,99929.23
2023-02-02T04:27:24.443Z,99927.88
2023-02-02T04:27:47.678Z,99931.56
2023-02-02T04:28:10.876Z,99930.04
2023-02-02T04:28:34.208Z,99929.22
2023-02-02T04:28:57.519Z,99932.30
2023-02-02T04:29:20.835Z,99931.93
2023-02-02T04:29:43.945Z,99932.77
2023-02-02T04:30:07.356Z,99934.60
2023-02-02T04:30:30.965Z,99931.36
2023-02-02T04:30:54.344Z,99930.23
2023-02-02T04:31:17.651Z,99933.02
2023-02-02T04:31:40.907Z,99930.55
2023-02-02T04:32:04.063Z,99931.13
2023-02-02T04:32:28.213Z,99928.58
2023-02-02T04:32:51.517Z,99927.96
2023-02-02T04:33:14.528Z,99926.17
2023-02-02T04:33:37.791Z,99926.30
2023-02-02T04:34:01.271Z,99926.60
2023-02-02T04:34:24.318Z,99924.84
2023-02-02T04:34:47.495Z,99928.84
2023-02-02T04:35:10.817Z,99928.16
2023-02-02T04:35:34.649Z,99924.19
2023-02-02T04:35:57.763Z,99924.04
2023-02-02T04:36:23.844Z,99926.73
2023-02-02T04:36:48.998Z,99925.36
2023-02-02T04:37:12.238Z,99927.83
2023-02-02T04:37:35.230Z,99926.45
2023-02-02T04:37:58.649Z,99928.92
2023-02-02T04:38:21.639Z,99927.38
2023-02-02T04:38:48.881Z,99928.67
2023-02-02T04:39:11.951Z,99929.22
2023-02-02T04:39:34.999Z,99932.20
2023-02-02T04:39:58.209Z,99930.31
2023-02-02T04:40:21.426Z,99931.55
2023-02-02T04:40:44.878Z,99932.63
2023-02-02T04:41:08.273Z,99931.95
2023-02-02T04:41:31.279Z,99930.30
2023-02-02T04:41:54.402Z,99932.74
2023-02-02T04:42:17.717Z,99933.05
2023-02-02T04:42:40.824Z,99933.34
2023-02-02T04:43:04.250Z,99932.39
2023-02-02T04:43:27.460Z,99932.67
2023-02-02T04:43:50.574Z,99931.85
2023-02-02T04:44:15.574Z,99932.83
2023-02-02T04:44:46.321Z,99930.24
2023-02-02T04:45:09.836Z,99931.55
2023-02-02T04:45:32.983Z,99930.92
2023-02-02T04:45:57.369Z,99926.30
2023-02-02T04:46:20.678Z,99931.16
2023-02-02T04:46:44.140Z,99927.45
2023-02-02T04:47:07.246Z,99930.06
2023-02-02T04:47:31.309Z,99929.52
2023-02-02T04:47:54.508Z,99929.02